Time;durP1;ratioP1;P1;durP2;ratioP2;P2;SDS_P1;SDS_P2;PMS_P1;PMS_P2;Temp;Humidity;BMP_temperature;BMP_pressure;BME280_temperature;BME280_humidity;BME280_pressure;Samples;Min_cycle;Max_cycle;Signal;HPM_P1;HPM_P2
2021/10/10 00:02:09;;;;;;;;;;;9.60;99.90;;;;;;1886059;74;20166;-85
2021/10/10 00:04:36;;;;;;;;;;;9.50;99.90;;;;;;1886713;74;20174;-82
2021/10/10 00:07:03;;;;;;;;;;;9.40;99.90;;;;;;1879371;74;20172;-81
2021/10/10 00:09:30;;;;;;;;;;;9.30;99.90;;;;;;1881732;74;20378;-81
2021/10/10 00:11:56;;;;;;;;;;;9.30;99.90;;;;;;1882871;74;20203;-81
2021/10/10 00:14:23;;;;;;;;;;;9.10;99.90;;;;;;1883618;74;20462;-82
2021/10/10 00:16:50;;;;;;;;;;;9.10;99.90;;;;;;1881351;74;20258;-80
2021/10/10 00:19:17;;;;;;;;;;;9.10;99.90;;;;;;1883052;74;20163;-81
2021/10/10 00:21:44;;;;;;;;;;;9.10;99.90;;;;;;1881643;74;20157;-81
2021/10/10 00:24:10;;;;;;;;;;;9.10;99.90;;;;;;1884182;74;20218;-82
2021/10/10 00:26:37;;;;;;;;;;;9.00;99.90;;;;;;1884854;74;20213;-80
2021/10/10 00:29:04;;;;;;;;;;;9.00;99.90;;;;;;1885100;74;20118;-82
2021/10/10 00:31:31;;;;;;;;;;;8.90;99.90;;;;;;1884976;74;20684;-80
2021/10/10 00:33:57;;;;;;;;;;;9.00;99.90;;;;;;1883351;74;20171;-80
2021/10/10 00:36:24;;;;;;;;;;;8.70;99.90;;;;;;1884781;74;20124;-79
2021/10/10 00:38:51;;;;;;;;;;;8.70;99.90;;;;;;1882349;74;20401;-81
2021/10/10 00:41:18;;;;;;;;;;;8.70;99.90;;;;;;1880423;74;20256;-81
2021/10/10 00:43:45;;;;;;;;;;;8.70;99.90;;;;;;1878012;74;20211;-81
2021/10/10 00:46:14;;;;;;;;;;;8.70;99.90;;;;;;1880731;74;20175;-80
2021/10/10 00:48:40;;;;;;;;;;;8.50;99.90;;;;;;1880755;74;20177;-80
2021/10/10 00:51:07;;;;;;;;;;;8.50;99.90;;;;;;1881973;74;20239;-80
2021/10/10 00:53:35;;;;;;;;;;;8.50;99.90;;;;;;1879594;74;20177;-81
2021/10/10 00:56:02;;;;;;;;;;;8.40;99.90;;;;;;1884325;74;20171;-80
2021/10/10 00:58:29;;;;;;;;;;;8.40;99.90;;;;;;1882905;74;20120;-80
2021/10/10 01:00:56;;;;;;;;;;;8.40;99.90;;;;;;1888052;74;20208;-81
2021/10/10 01:03:24;;;;;;;;;;;8.30;99.90;;;;;;1883043;74;20112;-80
2021/10/10 01:05:51;;;;;;;;;;;8.30;99.90;;;;;;1887890;74;20218;-81
2021/10/10 01:08:18;;;;;;;;;;;8.30;99.90;;;;;;1882025;74;20144;-80
2021/10/10 01:10:46;;;;;;;;;;;8.40;99.90;;;;;;1884788;74;20135;-79
2021/10/10 01:13:14;;;;;;;;;;;8.40;99.90;;;;;;1883181;74;20186;-79
2021/10/10 01:15:41;;;;;;;;;;;8.40;99.90;;;;;;1885271;74;20183;-80
2021/10/10 01:18:08;;;;;;;;;;;8.30;99.90;;;;;;1883376;74;20130;-81
2021/10/10 01:20:39;;;;;;;;;;;8.20;99.90;;;;;;1881997;74;20194;-80
2021/10/10 01:23:06;;;;;;;;;;;8.10;99.90;;;;;;1880513;74;20475;-79
2021/10/10 01:25:33;;;;;;;;;;;8.10;99.90;;;;;;1882279;74;20171;-79
2021/10/10 01:28:00;;;;;;;;;;;8.10;99.90;;;;;;1882389;74;20216;-78
2021/10/10 01:30:27;;;;;;;;;;;8.00;99.90;;;;;;1884717;74;20135;-79
2021/10/10 01:32:57;;;;;;;;;;;8.00;99.90;;;;;;1880564;74;20165;-79
2021/10/10 01:35:24;;;;;;;;;;;8.10;99.90;;;;;;1882187;74;20203;-79
2021/10/10 01:37:51;;;;;;;;;;;8.10;99.90;;;;;;1881707;74;20266;-80
2021/10/10 01:40:18;;;;;;;;;;;8.10;99.90;;;;;;1879848;74;20214;-79
2021/10/10 01:42:44;;;;;;;;;;;8.10;99.90;;;;;;1883905;74;20280;-79
2021/10/10 01:45:15;;;;;;;;;;;8.20;99.90;;;;;;1884367;74;20220;-81
2021/10/10 01:47:42;;;;;;;;;;;8.10;99.90;;;;;;1883051;74;20204;-78
2021/10/10 01:50:09;;;;;;;;;;;8.10;99.90;;;;;;1882484;74;20167;-79
2021/10/10 01:52:36;;;;;;;;;;;8.10;99.90;;;;;;1881230;74;20167;-80
2021/10/10 01:55:04;;;;;;;;;;;8.20;99.90;;;;;;1884017;74;20174;-82
2021/10/10 01:57:31;;;;;;;;;;;8.20;99.90;;;;;;1883150;74;20130;-81
2021/10/10 01:59:57;;;;;;;;;;;8.20;99.90;;;;;;1884995;74;20177;-82
2021/10/10 02:02:24;;;;;;;;;;;8.10;99.90;;;;;;1884158;74;20261;-78
2021/10/10 02:04:51;;;;;;;;;;;8.20;99.90;;;;;;1882462;74;20218;-80
2021/10/10 02:07:18;;;;;;;;;;;8.20;99.90;;;;;;1883518;74;20195;-79
2021/10/10 02:09:44;;;;;;;;;;;8.20;99.90;;;;;;1885721;74;20824;-80
2021/10/10 02:12:11;;;;;;;;;;;8.20;99.90;;;;;;1880856;74;20191;-82
2021/10/10 02:14:38;;;;;;;;;;;8.10;99.90;;;;;;1878313;74;20502;-80
2021/10/10 02:17:05;;;;;;;;;;;8.20;99.90;;;;;;1877773;74;20205;-79
2021/10/10 02:19:32;;;;;;;;;;;8.30;99.90;;;;;;1881663;74;20185;-81
2021/10/10 02:21:59;;;;;;;;;;;8.20;99.90;;;;;;1874269;73;20119;-78
2021/10/10 02:24:26;;;;;;;;;;;8.20;99.90;;;;;;1898840;74;20175;-78
2021/10/10 02:26:53;;;;;;;;;;;8.30;99.90;;;;;;1900224;74;20177;-79
2021/10/10 02:29:21;;;;;;;;;;;8.30;99.90;;;;;;1903596;74;20157;-79
2021/10/10 02:31:48;;;;;;;;;;;8.20;99.90;;;;;;1898620;74;20367;-77
2021/10/10 02:34:15;;;;;;;;;;;8.20;99.90;;;;;;1901292;74;20177;-76
2021/10/10 02:36:42;;;;;;;;;;;8.10;99.90;;;;;;1902606;74;20166;-77
2021/10/10 02:39:09;;;;;;;;;;;8.00;99.90;;;;;;1905400;74;20152;-77
2021/10/10 02:41:36;;;;;;;;;;;8.00;99.90;;;;;;1900293;74;20181;-76
2021/10/10 02:44:03;;;;;;;;;;;7.80;99.90;;;;;;1901806;74;20479;-78
2021/10/10 02:46:30;;;;;;;;;;;7.80;99.90;;;;;;1902692;74;20168;-77
2021/10/10 02:48:58;;;;;;;;;;;7.70;99.90;;;;;;1902254;74;20134;-77
2021/10/10 02:51:25;;;;;;;;;;;7.60;99.90;;;;;;1902626;74;20233;-79
2021/10/10 02:53:52;;;;;;;;;;;7.50;99.90;;;;;;1899820;74;20228;-77
2021/10/10 02:56:19;;;;;;;;;;;7.50;99.90;;;;;;1898700;74;20171;-77
2021/10/10 02:58:46;;;;;;;;;;;7.40;99.90;;;;;;1906049;74;21087;-78
2021/10/10 03:01:13;;;;;;;;;;;7.40;99.90;;;;;;1899286;74;20189;-77
2021/10/10 03:03:39;;;;;;;;;;;7.40;99.90;;;;;;1898653;74;20124;-78
2021/10/10 03:06:07;;;;;;;;;;;7.40;99.90;;;;;;1901817;74;20771;-78
2021/10/10 03:08:36;;;;;;;;;;;7.40;99.90;;;;;;1905316;74;20207;-78
2021/10/10 03:11:03;;;;;;;;;;;7.40;99.90;;;;;;1901912;74;20816;-78
2021/10/10 03:13:30;;;;;;;;;;;7.30;99.90;;;;;;1903978;74;20114;-77
2021/10/10 03:15:57;;;;;;;;;;;7.40;99.90;;;;;;1903772;74;20184;-80
2021/10/10 03:18:25;;;;;;;;;;;7.30;99.90;;;;;;1901581;74;20204;-78
2021/10/10 03:20:52;;;;;;;;;;;7.30;99.90;;;;;;1902628;74;20153;-79
2021/10/10 03:23:18;;;;;;;;;;;7.20;99.90;;;;;;1901662;74;20435;-78
2021/10/10 03:25:45;;;;;;;;;;;7.20;99.90;;;;;;1903129;74;20215;-77
2021/10/10 03:28:12;;;;;;;;;;;7.10;99.90;;;;;;1899668;74;20159;-78
2021/10/10 03:30:39;;;;;;;;;;;7.20;99.90;;;;;;1905619;74;20389;-79
2021/10/10 03:33:06;;;;;;;;;;;7.20;99.90;;;;;;1901651;74;20182;-78
2021/10/10 03:35:33;;;;;;;;;;;7.20;99.90;;;;;;1901012;74;20226;-78
2021/10/10 03:38:01;;;;;;;;;;;7.10;99.90;;;;;;1902174;74;20187;-78
2021/10/10 03:40:28;;;;;;;;;;;7.10;99.90;;;;;;1901600;74;20126;-77
2021/10/10 03:42:55;;;;;;;;;;;7.10;99.90;;;;;;1905885;74;20228;-77
2021/10/10 03:45:22;;;;;;;;;;;7.10;99.90;;;;;;1899599;74;20153;-78
2021/10/10 03:47:49;;;;;;;;;;;7.20;99.90;;;;;;1901006;74;20120;-80
2021/10/10 03:50:16;;;;;;;;;;;7.10;99.90;;;;;;1901894;74;20579;-77
2021/10/10 03:52:43;;;;;;;;;;;7.10;99.90;;;;;;1899776;74;20267;-78
2021/10/10 03:57:55;;;;;;;;;;;7.10;99.90;;;;;;1898638;74;20409;-77
2021/10/10 04:00:23;;;;;;;;;;;7.00;99.90;;;;;;1905269;74;20640;-77
2021/10/10 04:02:50;;;;;;;;;;;6.90;99.90;;;;;;1897819;74;20183;-78
2021/10/10 04:05:20;;;;;;;;;;;6.80;99.90;;;;;;1897569;74;20224;-77
2021/10/10 04:07:46;;;;;;;;;;;6.80;99.90;;;;;;1900688;74;20203;-77
2021/10/10 04:10:13;;;;;;;;;;;6.80;99.90;;;;;;1900322;74;20253;-77
2021/10/10 04:12:40;;;;;;;;;;;6.70;99.90;;;;;;1902317;74;20224;-76
2021/10/10 04:15:07;;;;;;;;;;;6.60;99.90;;;;;;1901308;74;20173;-77
2021/10/10 04:17:34;;;;;;;;;;;6.60;99.90;;;;;;1904229;74;20157;-78
2021/10/10 04:20:01;;;;;;;;;;;6.60;99.90;;;;;;1898671;74;20228;-77
2021/10/10 04:22:28;;;;;;;;;;;6.50;99.90;;;;;;1897563;74;20117;-77
2021/10/10 04:24:54;;;;;;;;;;;6.60;99.90;;;;;;1918666;73;20737;-77
2021/10/10 04:27:21;;;;;;;;;;;6.60;99.90;;;;;;1918422;73;20190;-76
2021/10/10 04:29:48;;;;;;;;;;;6.50;99.90;;;;;;1923824;73;20122;-77
2021/10/10 04:32:15;;;;;;;;;;;6.50;99.90;;;;;;1918715;73;20515;-78
2021/10/10 04:34:42;;;;;;;;;;;6.40;99.90;;;;;;1917244;73;20173;-78
2021/10/10 04:37:08;;;;;;;;;;;6.40;99.90;;;;;;1914809;73;20842;-77
2021/10/10 04:39:35;;;;;;;;;;;6.30;99.90;;;;;;1918264;73;20172;-78
2021/10/10 04:42:02;;;;;;;;;;;6.40;99.90;;;;;;1922088;73;20210;-78
2021/10/10 04:44:29;;;;;;;;;;;6.50;99.90;;;;;;1916985;73;20631;-77
2021/10/10 04:46:56;;;;;;;;;;;6.60;99.90;;;;;;1913112;73;20242;-78
2021/10/10 04:49:23;;;;;;;;;;;6.60;99.90;;;;;;1919983;73;20125;-79
2021/10/10 04:51:50;;;;;;;;;;;6.60;99.90;;;;;;1920936;73;20635;-79
2021/10/10 04:54:16;;;;;;;;;;;6.60;99.90;;;;;;1920114;73;20467;-79
2021/10/10 04:56:43;;;;;;;;;;;6.60;99.90;;;;;;1919611;73;20121;-78
2021/10/10 04:59:10;;;;;;;;;;;6.60;99.90;;;;;;1919501;73;20440;-78
2021/10/10 05:01:37;;;;;;;;;;;6.50;99.90;;;;;;1918999;73;20166;-80
2021/10/10 05:04:03;;;;;;;;;;;6.60;99.90;;;;;;1917129;73;20117;-80
2021/10/10 05:06:30;;;;;;;;;;;6.60;99.90;;;;;;1919417;73;20195;-77
2021/10/10 05:08:57;;;;;;;;;;;6.50;99.90;;;;;;1913789;73;20176;-77
2021/10/10 05:11:24;;;;;;;;;;;6.50;99.90;;;;;;1917312;73;20274;-78
2021/10/10 05:13:51;;;;;;;;;;;6.70;99.90;;;;;;1915060;73;20126;-78
2021/10/10 05:16:17;;;;;;;;;;;6.60;99.90;;;;;;1923468;73;20979;-78
2021/10/10 05:18:44;;;;;;;;;;;6.60;99.90;;;;;;1920814;73;20164;-79
2021/10/10 05:21:11;;;;;;;;;;;6.60;99.90;;;;;;1919058;73;20465;-79
2021/10/10 05:23:38;;;;;;;;;;;6.60;99.90;;;;;;1918248;73;20265;-78
2021/10/10 05:26:06;;;;;;;;;;;6.50;99.90;;;;;;1915811;74;20165;-78
2021/10/10 05:28:33;;;;;;;;;;;6.50;99.90;;;;;;1919530;73;20257;-77
2021/10/10 05:31:00;;;;;;;;;;;6.40;99.90;;;;;;1916182;73;20151;-78
2021/10/10 05:33:27;;;;;;;;;;;6.40;99.90;;;;;;1920244;73;20180;-78
2021/10/10 05:35:53;;;;;;;;;;;6.30;99.90;;;;;;1920450;73;20161;-78
2021/10/10 05:38:20;;;;;;;;;;;6.30;99.90;;;;;;1919036;73;20180;-78
2021/10/10 05:40:47;;;;;;;;;;;6.30;99.90;;;;;;1918773;73;20157;-80
2021/10/10 05:43:14;;;;;;;;;;;6.30;99.90;;;;;;1918929;73;20121;-80
2021/10/10 05:45:40;;;;;;;;;;;6.20;99.90;;;;;;1919406;73;20243;-79
2021/10/10 05:48:07;;;;;;;;;;;6.30;99.90;;;;;;1915785;73;20204;-77
2021/10/10 05:50:34;;;;;;;;;;;6.20;99.90;;;;;;1920631;73;20423;-78
2021/10/10 05:53:07;;;;;;;;;;;6.10;99.90;;;;;;1916535;73;20183;-78
2021/10/10 05:55:29;;;;;;;;;;;6.10;99.90;;;;;;1915617;73;20492;-78
2021/10/10 05:58:01;;;;;;;;;;;6.20;99.90;;;;;;1917569;73;20521;-79
2021/10/10 06:00:25;;;;;;;;;;;6.10;99.90;;;;;;1913928;73;20184;-78
2021/10/10 06:02:52;;;;;;;;;;;6.10;99.90;;;;;;1915405;73;20191;-79
2021/10/10 06:05:18;;;;;;;;;;;6.00;99.90;;;;;;1915085;73;20190;-79
2021/10/10 06:07:45;;;;;;;;;;;6.00;99.90;;;;;;1913212;73;20226;-79
2021/10/10 06:10:12;;;;;;;;;;;6.10;99.90;;;;;;1915288;73;20143;-79
2021/10/10 06:12:39;;;;;;;;;;;6.00;99.90;;;;;;1917556;73;20173;-78
2021/10/10 06:15:07;;;;;;;;;;;6.10;99.90;;;;;;1916062;73;20219;-81
2021/10/10 06:17:34;;;;;;;;;;;6.10;99.90;;;;;;1918963;73;20234;-80
2021/10/10 06:20:02;;;;;;;;;;;6.40;99.90;;;;;;1917252;73;20161;-80
2021/10/10 06:22:28;;;;;;;;;;;6.30;99.90;;;;;;1915039;73;20132;-80
2021/10/10 06:24:55;;;;;;;;;;;6.40;99.90;;;;;;1915536;73;20484;-80
2021/10/10 06:27:22;;;;;;;;;;;6.40;99.90;;;;;;1916834;73;20238;-80
2021/10/10 06:29:49;;;;;;;;;;;6.40;99.90;;;;;;1918865;73;20501;-83
2021/10/10 06:32:16;;;;;;;;;;;6.60;99.90;;;;;;1919049;73;20180;-83
2021/10/10 06:34:42;;;;;;;;;;;6.80;99.90;;;;;;1916476;73;20218;-82
2021/10/10 06:37:09;;;;;;;;;;;6.90;99.90;;;;;;1918330;73;20496;-83
2021/10/10 06:39:36;;;;;;;;;;;6.90;99.90;;;;;;1920854;73;20117;-85
2021/10/10 06:42:03;;;;;;;;;;;6.90;99.90;;;;;;1922224;73;20113;-83
2021/10/10 06:44:30;;;;;;;;;;;6.90;99.90;;;;;;1919401;73;20523;-83
2021/10/10 06:46:57;;;;;;;;;;;6.90;99.90;;;;;;1917877;73;20331;-83
2021/10/10 06:49:24;;;;;;;;;;;6.80;99.90;;;;;;1921137;73;20165;-82
2021/10/10 06:51:51;;;;;;;;;;;6.80;99.90;;;;;;1922475;73;20151;-82
2021/10/10 06:54:18;;;;;;;;;;;6.80;99.90;;;;;;1918649;73;20197;-82
2021/10/10 06:56:45;;;;;;;;;;;6.80;99.90;;;;;;1918141;73;20203;-81
2021/10/10 06:59:12;;;;;;;;;;;6.80;99.90;;;;;;1916865;73;20163;-81
2021/10/10 07:01:39;;;;;;;;;;;6.90;99.90;;;;;;1919175;73;21376;-81
2021/10/10 07:04:05;;;;;;;;;;;7.00;99.90;;;;;;1917948;73;20387;-81
2021/10/10 07:06:32;;;;;;;;;;;7.10;99.90;;;;;;1926530;73;20322;-81
2021/10/10 07:08:59;;;;;;;;;;;7.20;99.90;;;;;;1916662;73;20206;-82
2021/10/10 07:11:26;;;;;;;;;;;7.30;99.90;;;;;;1926309;72;20463;-79
2021/10/10 07:13:53;;;;;;;;;;;7.30;99.90;;;;;;1918709;73;20164;-80
2021/10/10 07:16:26;;;;;;;;;;;7.50;99.90;;;;;;1917076;73;20424;-82
2021/10/10 07:18:50;;;;;;;;;;;7.50;99.90;;;;;;1916204;73;20184;-82
2021/10/10 07:26:24;;;;;;;;;;;7.60;99.90;;;;;;1919609;73;20524;-82
2021/10/10 07:28:51;;;;;;;;;;;7.70;99.90;;;;;;1915209;73;20131;-80
2021/10/10 07:31:18;;;;;;;;;;;7.80;99.90;;;;;;1913692;73;20200;-83
2021/10/10 07:33:45;;;;;;;;;;;7.90;99.90;;;;;;1922480;73;20179;-82
2021/10/10 07:36:12;;;;;;;;;;;8.10;99.90;;;;;;1920129;73;20121;-82
2021/10/10 07:38:39;;;;;;;;;;;8.20;99.90;;;;;;1916175;73;20524;-83
2021/10/10 07:41:06;;;;;;;;;;;8.40;99.90;;;;;;1921737;73;20718;-81
2021/10/10 07:43:33;;;;;;;;;;;8.50;99.90;;;;;;1919626;73;20234;-83
2021/10/10 07:46:17;;;;;;;;;;;8.50;99.90;;;;;;1920501;73;20225;-82
2021/10/10 07:48:28;;;;;;;;;;;8.60;99.90;;;;;;1911253;73;20198;-86
2021/10/10 07:50:55;;;;;;;;;;;8.60;99.90;;;;;;1921287;73;20122;-78
2021/10/10 07:53:22;;;;;;;;;;;8.70;99.90;;;;;;1921290;73;20192;-79
2021/10/10 07:55:48;;;;;;;;;;;8.70;99.90;;;;;;1920777;73;20266;-76
2021/10/10 07:58:15;;;;;;;;;;;8.80;99.90;;;;;;1922685;73;20176;-77
2021/10/10 08:00:42;;;;;;;;;;;8.90;99.90;;;;;;1923017;73;20173;-78
2021/10/10 08:03:09;;;;;;;;;;;9.10;99.90;;;;;;1924958;73;20125;-78
2021/10/10 08:05:40;;;;;;;;;;;9.10;99.90;;;;;;1920923;73;20244;-78
2021/10/10 08:08:08;;;;;;;;;;;9.20;99.90;;;;;;1912842;73;20497;-77
2021/10/10 08:10:35;;;;;;;;;;;9.30;99.90;;;;;;1919972;73;20183;-78
2021/10/10 08:13:03;;;;;;;;;;;9.40;99.90;;;;;;1920126;73;20118;-81
2021/10/10 08:15:30;;;;;;;;;;;9.30;99.90;;;;;;1918678;73;20209;-81
2021/10/10 08:17:57;;;;;;;;;;;9.50;99.90;;;;;;1921558;73;20236;-79
2021/10/10 08:20:27;;;;;;;;;;;9.50;99.90;;;;;;1916567;73;20106;-81
2021/10/10 08:22:53;;;;;;;;;;;9.50;99.90;;;;;;1911071;73;20200;-71
2021/10/10 08:25:19;;;;;;;;;;;9.60;99.90;;;;;;1889037;74;20130;-74
2021/10/10 08:27:48;;;;;;;;;;;9.60;99.90;;;;;;1893341;74;20226;-71
2021/10/10 08:30:16;;;;;;;;;;;9.60;99.90;;;;;;1891831;74;20259;-72
2021/10/10 08:32:45;;;;;;;;;;;9.60;99.90;;;;;;1889621;74;20173;-72
2021/10/10 08:35:12;;;;;;;;;;;9.70;99.90;;;;;;1888444;74;20535;-72
2021/10/10 08:37:39;;;;;;;;;;;9.60;99.90;;;;;;1884112;74;20470;-74
2021/10/10 08:40:07;;;;;;;;;;;9.70;99.90;;;;;;1887897;74;20210;-74
2021/10/10 08:42:35;;;;;;;;;;;9.70;99.90;;;;;;1883600;74;20237;-73
2021/10/10 08:45:08;;;;;;;;;;;9.60;99.90;;;;;;1882845;74;20455;-74
2021/10/10 08:47:31;;;;;;;;;;;9.60;99.90;;;;;;1883122;75;20217;-71
2021/10/10 08:49:58;;;;;;;;;;;9.60;99.90;;;;;;1885820;75;20774;-72
2021/10/10 08:52:25;;;;;;;;;;;9.70;99.90;;;;;;1888087;75;20204;-71
2021/10/10 08:54:52;;;;;;;;;;;9.70;99.90;;;;;;1889479;74;20199;-71
2021/10/10 08:57:19;;;;;;;;;;;9.80;99.90;;;;;;1887101;74;20234;-72
2021/10/10 08:59:48;;;;;;;;;;;9.80;99.90;;;;;;1888370;74;20205;-71
2021/10/10 09:02:21;;;;;;;;;;;9.90;99.90;;;;;;1886893;74;20226;-71
2021/10/10 09:04:47;;;;;;;;;;;9.90;99.90;;;;;;1893186;74;20184;-72
2021/10/10 09:07:14;;;;;;;;;;;9.90;99.90;;;;;;1885533;74;20121;-72
2021/10/10 09:09:41;;;;;;;;;;;10.10;99.90;;;;;;1886181;74;20370;-72
2021/10/10 09:12:09;;;;;;;;;;;10.30;99.90;;;;;;1888096;75;20179;-73
2021/10/10 09:14:43;;;;;;;;;;;10.40;99.90;;;;;;1885459;74;20167;-73
2021/10/10 09:17:14;;;;;;;;;;;10.60;99.90;;;;;;1886971;75;20474;-73
2021/10/10 09:19:43;;;;;;;;;;;10.70;99.90;;;;;;1888125;74;20217;-73
2021/10/10 09:22:11;;;;;;;;;;;10.70;99.90;;;;;;1883504;75;20175;-73
2021/10/10 09:24:38;;;;;;;;;;;10.80;99.90;;;;;;1885587;74;20175;-73
2021/10/10 09:27:06;;;;;;;;;;;10.90;99.90;;;;;;1891785;74;20120;-74
2021/10/10 09:29:37;;;;;;;;;;;11.00;99.90;;;;;;1887237;74;20114;-73
2021/10/10 09:32:06;;;;;;;;;;;11.10;99.90;;;;;;1886047;74;20487;-69
2021/10/10 09:34:33;;;;;;;;;;;11.10;99.90;;;;;;1884028;75;20223;-77
2021/10/10 09:37:01;;;;;;;;;;;11.20;99.90;;;;;;1891885;74;20125;-77
2021/10/10 09:39:33;;;;;;;;;;;11.30;99.90;;;;;;1885068;75;20223;-78
2021/10/10 09:42:00;;;;;;;;;;;11.40;99.90;;;;;;1886291;75;20269;-79
2021/10/10 09:44:33;;;;;;;;;;;11.40;99.90;;;;;;1889154;75;20179;-78
2021/10/10 09:46:56;;;;;;;;;;;11.50;99.90;;;;;;1888711;74;20246;-76
2021/10/10 09:49:24;;;;;;;;;;;11.60;99.90;;;;;;1883086;75;20267;-69
2021/10/10 09:51:52;;;;;;;;;;;11.70;99.90;;;;;;1885581;74;20220;-69
2021/10/10 09:54:19;;;;;;;;;;;11.70;99.90;;;;;;1882762;75;20471;-68
2021/10/10 09:57:03;;;;;;;;;;;11.70;99.90;;;;;;1886031;74;20253;-67
2021/10/10 09:59:29;;;;;;;;;;;11.80;99.90;;;;;;1889091;75;20256;-69
2021/10/10 10:01:56;;;;;;;;;;;11.90;99.90;;;;;;1887770;75;20291;-70
2021/10/10 10:04:23;;;;;;;;;;;12.00;99.90;;;;;;1886408;75;20213;-69
2021/10/10 10:06:50;;;;;;;;;;;12.00;99.90;;;;;;1892494;74;20435;-70
2021/10/10 10:09:17;;;;;;;;;;;12.10;99.90;;;;;;1884016;75;20183;-68
2021/10/10 10:11:44;;;;;;;;;;;12.10;99.90;;;;;;1885933;75;20408;-68
2021/10/10 10:14:14;;;;;;;;;;;12.10;99.90;;;;;;1886820;74;20169;-76
2021/10/10 10:16:42;;;;;;;;;;;12.10;99.90;;;;;;1894223;74;20173;-78
2021/10/10 10:19:13;;;;;;;;;;;12.10;99.90;;;;;;1886217;75;20428;-76
2021/10/10 10:21:40;;;;;;;;;;;12.20;99.90;;;;;;1892909;74;20131;-69
2021/10/10 10:24:08;;;;;;;;;;;12.20;99.90;;;;;;1890666;74;20490;-68
2021/10/10 10:26:35;;;;;;;;;;;12.20;99.90;;;;;;1891242;74;20486;-69
2021/10/10 10:29:03;;;;;;;;;;;12.30;99.90;;;;;;1896801;74;20516;-69
2021/10/10 10:31:31;;;;;;;;;;;12.30;99.90;;;;;;1892039;74;20184;-69
2021/10/10 10:34:21;;;;;;;;;;;12.40;99.90;;;;;;1888829;74;20129;-68
2021/10/10 10:36:52;;;;;;;;;;;12.50;99.90;;;;;;1884862;74;20197;-67
2021/10/10 10:39:29;;;;;;;;;;;12.50;99.90;;;;;;1887117;74;20134;-68
2021/10/10 10:41:56;;;;;;;;;;;12.60;99.90;;;;;;1855838;74;20491;-68
2021/10/10 10:44:39;;;;;;;;;;;12.70;99.90;;;;;;1887337;74;20111;-68
2021/10/10 10:47:13;;;;;;;;;;;12.60;99.90;;;;;;1888586;74;20219;-68
2021/10/10 10:49:54;;;;;;;;;;;12.60;99.90;;;;;;1884746;74;20177;-69
2021/10/10 10:52:37;;;;;;;;;;;12.60;99.90;;;;;;1884056;74;20433;-70
2021/10/10 10:55:17;;;;;;;;;;;12.70;99.90;;;;;;1892611;74;20178;-69
2021/10/10 10:58:01;;;;;;;;;;;12.70;99.90;;;;;;1889566;74;20220;-68
2021/10/10 11:00:29;;;;;;;;;;;12.70;99.90;;;;;;1885994;74;20177;-69
2021/10/10 11:03:01;;;;;;;;;;;12.70;99.90;;;;;;1889779;74;20216;-69
2021/10/10 11:05:31;;;;;;;;;;;12.60;99.90;;;;;;1890457;74;20240;-68
2021/10/10 11:07:59;;;;;;;;;;;12.60;99.90;;;;;;1891521;74;20340;-71
2021/10/10 11:10:26;;;;;;;;;;;12.70;99.90;;;;;;1894030;74;20159;-69
2021/10/10 11:12:54;;;;;;;;;;;12.70;99.90;;;;;;1890072;74;20186;-68
2021/10/10 11:15:21;;;;;;;;;;;12.80;99.90;;;;;;1892788;74;20408;-69
2021/10/10 11:17:55;;;;;;;;;;;13.00;99.90;;;;;;1894914;74;20173;-69
2021/10/10 11:20:22;;;;;;;;;;;13.10;99.90;;;;;;1884495;74;20190;-69
2021/10/10 11:22:49;;;;;;;;;;;13.30;99.90;;;;;;1890356;74;20215;-77
2021/10/10 11:25:16;;;;;;;;;;;13.50;99.90;;;;;;1889332;74;20723;-69
2021/10/10 11:27:43;;;;;;;;;;;13.60;99.90;;;;;;1891487;74;20200;-70
2021/10/10 11:30:13;;;;;;;;;;;13.70;99.90;;;;;;1895937;74;20332;-69
2021/10/10 11:32:51;;;;;;;;;;;13.80;99.90;;;;;;1893672;74;20640;-74
2021/10/10 11:35:27;;;;;;;;;;;14.00;99.90;;;;;;1883949;75;20242;-70
2021/10/10 11:38:06;;;;;;;;;;;14.20;99.90;;;;;;1889443;74;20207;-69
2021/10/10 11:40:33;;;;;;;;;;;14.30;99.90;;;;;;1886221;74;20323;-69
2021/10/10 11:43:01;;;;;;;;;;;14.40;99.90;;;;;;1892527;74;20149;-69
2021/10/10 11:45:28;;;;;;;;;;;14.40;99.90;;;;;;1886678;75;20127;-69
2021/10/10 11:47:55;;;;;;;;;;;14.60;99.90;;;;;;1888255;74;20201;-69
2021/10/10 11:50:22;;;;;;;;;;;14.80;99.90;;;;;;1889613;74;20256;-69
2021/10/10 11:53:01;;;;;;;;;;;15.00;99.90;;;;;;1884385;74;20217;-69
2021/10/10 11:57:57;;;;;;;;;;;15.10;99.90;;;;;;1887783;74;20379;-70
2021/10/10 12:00:25;;;;;;;;;;;15.20;99.90;;;;;;1892179;74;20215;-70
2021/10/10 12:02:52;;;;;;;;;;;15.30;99.90;;;;;;1890409;74;20127;-71
2021/10/10 12:05:23;;;;;;;;;;;15.40;99.90;;;;;;1884560;74;20190;-70
2021/10/10 12:07:51;;;;;;;;;;;15.50;99.90;;;;;;1886618;74;20431;-69
2021/10/10 12:10:20;;;;;;;;;;;15.60;99.90;;;;;;1885841;75;20323;-69
2021/10/10 12:12:47;;;;;;;;;;;15.70;99.90;;;;;;1884280;75;20596;-69
2021/10/10 12:15:18;;;;;;;;;;;15.70;99.90;;;;;;1887804;75;20404;-68
2021/10/10 12:17:49;;;;;;;;;;;15.70;99.90;;;;;;1886102;75;20211;-69
2021/10/10 12:20:17;;;;;;;;;;;15.70;99.90;;;;;;1884587;75;20246;-70
2021/10/10 12:22:45;;;;;;;;;;;15.80;99.90;;;;;;1891909;74;20161;-70
2021/10/10 12:25:29;;;;;;;;;;;16.00;99.90;;;;;;1885656;74;20175;-70
2021/10/10 12:27:57;;;;;;;;;;;16.20;99.90;;;;;;1883763;74;20157;-69
2021/10/10 12:30:29;;;;;;;;;;;16.40;99.90;;;;;;1885103;75;20185;-69
2021/10/10 12:32:56;;;;;;;;;;;16.70;99.90;;;;;;1884993;74;20215;-70
2021/10/10 12:35:24;;;;;;;;;;;16.80;99.90;;;;;;1884855;75;20152;-69
2021/10/10 12:37:52;;;;;;;;;;;17.00;99.90;;;;;;1887213;74;20115;-70
2021/10/10 12:40:26;;;;;;;;;;;17.10;99.90;;;;;;1883220;75;20131;-70
2021/10/10 12:42:54;;;;;;;;;;;17.20;99.90;;;;;;1885329;75;20154;-70
2021/10/10 12:45:31;;;;;;;;;;;17.30;99.90;;;;;;1886738;74;20171;-69
2021/10/10 12:48:02;;;;;;;;;;;17.40;99.90;;;;;;1891898;74;20434;-70
2021/10/10 12:50:29;;;;;;;;;;;17.50;99.90;;;;;;1893292;74;20255;-69
2021/10/10 12:52:56;;;;;;;;;;;17.30;99.90;;;;;;1896261;74;20624;-70
2021/10/10 12:55:26;;;;;;;;;;;17.50;99.90;;;;;;1895198;74;20186;-71
2021/10/10 12:57:57;;;;;;;;;;;17.70;99.90;;;;;;1893767;74;20420;-69
2021/10/10 13:00:25;;;;;;;;;;;17.80;99.90;;;;;;1885761;74;20401;-70
2021/10/10 13:02:52;;;;;;;;;;;17.70;99.90;;;;;;1886107;75;20127;-70
2021/10/10 13:05:19;;;;;;;;;;;17.60;99.90;;;;;;1885735;75;20274;-70
2021/10/10 13:07:46;;;;;;;;;;;17.80;99.90;;;;;;1886462;74;20122;-70
2021/10/10 13:10:14;;;;;;;;;;;18.00;99.90;;;;;;1887994;74;20211;-70
2021/10/10 13:12:40;;;;;;;;;;;18.10;99.90;;;;;;1885589;75;20473;-69
2021/10/10 13:15:08;;;;;;;;;;;18.10;99.90;;;;;;1892989;74;20277;-69
2021/10/10 13:17:36;;;;;;;;;;;18.20;99.90;;;;;;1887719;74;20478;-69
2021/10/10 13:20:03;;;;;;;;;;;18.20;99.90;;;;;;1889142;75;20612;-68
2021/10/10 13:22:33;;;;;;;;;;;18.20;99.90;;;;;;1884793;74;20139;-69
2021/10/10 13:25:00;;;;;;;;;;;18.20;99.90;;;;;;1881699;74;20302;-69
2021/10/10 13:27:27;;;;;;;;;;;18.20;99.90;;;;;;1885904;75;20154;-69
2021/10/10 13:29:53;;;;;;;;;;;18.20;99.90;;;;;;1887183;74;20212;-68
2021/10/10 13:32:20;;;;;;;;;;;18.20;99.90;;;;;;1886602;74;20161;-69
2021/10/10 13:34:47;;;;;;;;;;;18.20;99.90;;;;;;1886201;74;20184;-70
2021/10/10 13:37:14;;;;;;;;;;;18.00;99.90;;;;;;1884468;74;20247;-69
2021/10/10 13:39:40;;;;;;;;;;;17.70;99.90;;;;;;1886235;75;20155;-69
2021/10/10 13:42:07;;;;;;;;;;;17.50;99.90;;;;;;1882179;75;20194;-69
2021/10/10 13:44:34;;;;;;;;;;;17.50;99.90;;;;;;1885420;75;20122;-70
2021/10/10 13:47:01;;;;;;;;;;;17.40;99.90;;;;;;1886283;74;20116;-70
2021/10/10 13:49:28;;;;;;;;;;;17.20;99.90;;;;;;1889942;74;20163;-70
2021/10/10 13:51:54;;;;;;;;;;;17.10;99.90;;;;;;1885038;75;20135;-70
2021/10/10 13:54:21;;;;;;;;;;;16.90;99.90;;;;;;1883729;74;20214;-69
2021/10/10 13:56:48;;;;;;;;;;;16.90;99.90;;;;;;1890427;74;20240;-70
2021/10/10 13:59:15;;;;;;;;;;;16.90;99.90;;;;;;1889190;74;20116;-70
2021/10/10 14:01:42;;;;;;;;;;;16.80;99.90;;;;;;1891002;74;20460;-70
2021/10/10 14:04:08;;;;;;;;;;;16.80;99.90;;;;;;1887492;74;20228;-69
2021/10/10 14:06:35;;;;;;;;;;;16.80;99.90;;;;;;1893780;74;20518;-70
2021/10/10 14:09:02;;;;;;;;;;;16.70;99.90;;;;;;1890881;74;20257;-70
2021/10/10 14:11:29;;;;;;;;;;;16.80;99.90;;;;;;1888142;75;20242;-70
2021/10/10 14:13:56;;;;;;;;;;;16.70;99.90;;;;;;1887461;75;20212;-71
2021/10/10 14:16:22;;;;;;;;;;;16.70;99.90;;;;;;1887509;75;20499;-69
2021/10/10 14:18:49;;;;;;;;;;;16.80;99.90;;;;;;1885600;75;20127;-70
2021/10/10 14:21:16;;;;;;;;;;;16.60;99.90;;;;;;1887845;75;20238;-69
2021/10/10 14:23:43;;;;;;;;;;;16.50;99.90;;;;;;1887209;74;20175;-69
2021/10/10 14:26:10;;;;;;;;;;;16.50;99.90;;;;;;1884127;75;20169;-71
2021/10/10 14:28:37;;;;;;;;;;;16.40;99.90;;;;;;1887187;74;20227;-68
2021/10/10 14:31:04;;;;;;;;;;;16.40;99.90;;;;;;1886624;74;20224;-69
2021/10/10 14:33:30;;;;;;;;;;;16.30;99.90;;;;;;1887978;74;20271;-69
2021/10/10 14:35:57;;;;;;;;;;;16.40;99.90;;;;;;1887957;70;20195;-72
2021/10/10 14:38:24;;;;;;;;;;;16.30;99.90;;;;;;1968112;72;20121;-72
2021/10/10 14:41:12;;;;;;;;;;;16.20;99.90;;;;;;1970136;72;20458;-72